Time;durP1;ratioP1;P1;durP2;ratioP2;P2;SDS_P1;SDS_P2;PMS_P1;PMS_P2;Temp;Humidity;BMP_temperature;BMP_pressure;BME280_temperature;BME280_humidity;BME280_pressure;Samples;Min_cycle;Max_cycle;Signal;HPM_P1;HPM_P2
2021/12/21 00:00:49;;;;;;;16.17;9.50;;;1.20;99.90;;;;;;4963574;28;20992;-61
2021/12/21 00:03:17;;;;;;;14.10;9.20;;;0.90;99.90;;;;;;4955329;28;20562;-61
2021/12/21 00:05:46;;;;;;;13.60;8.60;;;0.60;99.90;;;;;;4958332;28;20478;-62
2021/12/21 00:08:16;;;;;;;16.43;9.80;;;0.80;99.90;;;;;;4968129;28;20904;-62
2021/12/21 00:11:06;;;;;;;17.67;10.50;;;0.90;99.90;;;;;;4974037;28;20484;-61
2021/12/21 00:13:52;;;;;;;15.47;9.73;;;1.10;99.90;;;;;;4960182;28;20482;-62
2021/12/21 00:16:44;;;;;;;17.30;10.47;;;1.00;99.90;;;;;;4955062;28;21034;-62
2021/12/21 00:19:36;;;;;;;19.30;11.07;;;1.10;99.90;;;;;;4972734;28;20475;-62
2021/12/21 00:22:11;;;;;;;17.70;10.50;;;1.00;99.90;;;;;;4963068;28;20524;-61
2021/12/21 00:24:46;;;;;;;18.37;11.13;;;1.00;99.90;;;;;;4954860;28;20537;-61
2021/12/21 00:27:16;;;;;;;19.30;11.77;;;1.00;99.90;;;;;;4954882;28;20558;-61
2021/12/21 00:29:44;;;;;;;20.60;12.23;;;1.00;99.90;;;;;;4954630;28;20483;-61
2021/12/21 00:32:12;;;;;;;17.47;10.13;;;1.00;99.90;;;;;;4954731;28;20486;-62
2021/12/21 00:34:52;;;;;;;14.98;9.50;;;1.00;99.90;;;;;;2709603;28;10002287;-61
2021/12/21 00:37:22;;;;;;;17.83;10.33;;;1.20;99.90;;;;;;3928114;28;10000973;-62
2021/12/21 00:39:56;;;;;;;16.10;10.50;;;0.90;99.90;;;;;;4954502;28;20990;-61
2021/12/21 00:42:26;;;;;;;12.20;8.90;;;0.90;99.90;;;;;;4954434;28;20494;-61
2021/12/21 00:44:54;;;;;;;14.67;9.30;;;0.90;99.90;;;;;;4954680;28;20481;-62
2021/12/21 00:47:22;;;;;;;16.10;10.07;;;1.00;99.90;;;;;;4958946;28;20881;-62
2021/12/21 00:49:58;;;;;;;12.43;8.77;;;0.90;99.90;;;;;;4968722;28;20483;-61
2021/12/21 00:52:27;;;;;;;14.10;8.83;;;1.00;99.90;;;;;;4968116;28;20883;-62
2021/12/21 00:54:55;;;;;;;14.73;9.37;;;1.10;99.90;;;;;;4973825;28;20477;-61
2021/12/21 00:57:25;;;;;;;13.80;9.07;;;1.00;99.90;;;;;;4968954;28;20502;-61
2021/12/21 00:59:53;;;;;;;16.40;9.07;;;1.00;99.90;;;;;;4954266;28;20900;-61
2021/12/21 01:02:21;;;;;;;12.40;8.30;;;0.90;99.90;;;;;;4955179;28;20469;-61
2021/12/21 01:04:50;;;;;;;12.50;8.53;;;0.90;99.90;;;;;;4973283;28;20477;-62
2021/12/21 01:07:25;;;;;;;15.43;8.83;;;1.00;99.90;;;;;;4969454;28;20486;-62
2021/12/21 01:10:36;;;;;;;13.63;8.57;;;1.00;99.90;;;;;;4954278;28;20485;-61
2021/12/21 01:13:14;;;;;;;10.43;6.77;;;0.50;99.90;;;;;;4963023;28;21111;-62
2021/12/21 01:16:02;;;;;;;11.37;7.97;;;0.40;99.90;;;;;;4973216;28;20581;-61
2021/12/21 01:18:37;;;;;;;8.40;7.10;;;0.60;99.90;;;;;;4959494;28;20542;-62
2021/12/21 01:21:12;;;;;;;9.70;6.70;;;0.40;99.90;;;;;;4960503;28;20478;-62
2021/12/21 01:24:05;;;;;;;8.93;6.37;;;0.10;99.90;;;;;;4967785;28;20910;-61
2021/12/21 01:26:41;;;;;;;10.60;6.90;;;0.20;99.90;;;;;;4972239;28;20502;-62
2021/12/21 01:29:20;;;;;;;10.10;6.87;;;-0.10;99.90;;;;;;4954199;28;21039;-61
2021/12/21 01:31:56;;;;;;;7.90;5.13;;;-0.10;99.90;;;;;;4953528;28;20888;-61
2021/12/21 01:34:37;;;;;;;10.13;5.93;;;0.00;99.90;;;;;;4934749;28;20467;-62
2021/12/21 01:37:12;;;;;;;10.17;6.53;;;0.50;99.90;;;;;;4942720;28;20525;-61
2021/12/21 01:39:55;;;;;;;13.50;7.60;;;0.50;99.90;;;;;;4970336;28;20501;-62
2021/12/21 01:42:34;;;;;;;10.03;6.60;;;0.20;99.90;;;;;;4957854;28;20495;-61
2021/12/21 01:50:32;;;;;;;9.17;6.83;;;0.10;99.90;;;;;;4950142;28;20548;-61
2021/12/21 01:53:01;;;;;;;9.70;6.87;;;0.00;99.90;;;;;;4970425;28;20468;-61
2021/12/21 01:55:29;;;;;;;9.30;6.47;;;0.00;99.90;;;;;;4972823;28;20834;-61
2021/12/21 01:57:57;;;;;;;10.07;6.23;;;0.40;99.90;;;;;;4972566;28;20479;-61
2021/12/21 02:00:27;;;;;;;13.50;7.10;;;0.30;99.90;;;;;;4965853;28;20481;-61
2021/12/21 02:02:56;;;;;;;6.87;5.90;;;0.20;99.90;;;;;;4968581;28;20485;-62
2021/12/21 02:05:24;;;;;;;8.07;6.27;;;0.20;99.90;;;;;;4971322;28;20474;-61
2021/12/21 02:07:52;;;;;;;9.40;6.33;;;0.60;99.90;;;;;;4963781;28;20534;-61
2021/12/21 02:10:20;;;;;;;8.97;6.30;;;0.60;99.90;;;;;;4953162;28;20483;-61
2021/12/21 02:12:49;;;;;;;7.63;6.00;;;0.70;99.90;;;;;;4952633;28;20490;-61
2021/12/21 02:15:18;;;;;;;8.17;6.17;;;0.40;99.90;;;;;;4953091;28;20498;-61
2021/12/21 02:18:21;;;;;;;6.63;5.67;;;0.30;99.90;;;;;;4952804;28;20503;-62
2021/12/21 02:20:55;;;;;;;9.23;5.80;;;0.60;99.90;;;;;;4957486;28;20570;-61
2021/12/21 02:23:31;;;;;;;7.73;5.70;;;0.40;99.90;;;;;;4971949;28;20842;-61
2021/12/21 02:31:32;;;;;;;10.20;6.40;;;0.70;99.90;;;;;;4947852;28;20475;-62
2021/12/21 02:34:08;;;;;;;9.42;6.32;;;0.70;99.90;;;;;;4736993;28;10001146;-61
2021/12/21 02:36:38;;;;;;;9.25;6.35;;;0.70;99.90;;;;;;1363541;28;10001992;-62
2021/12/21 02:39:08;;;;;;;10.03;5.90;;;0.50;99.90;;;;;;4951695;28;20719;-61
2021/12/21 02:41:37;;;;;;;6.47;5.57;;;0.60;99.90;;;;;;4952321;28;20581;-62
2021/12/21 02:44:06;;;;;;;10.97;6.10;;;0.60;99.90;;;;;;4952411;28;20482;-61
2021/12/21 02:46:38;;;;;;;7.63;5.97;;;0.70;99.90;;;;;;4952408;28;20486;-61
2021/12/21 02:49:07;;;;;;;8.43;5.90;;;0.50;99.90;;;;;;4970742;28;20474;-61
2021/12/21 02:51:40;;;;;;;7.90;6.00;;;0.60;99.90;;;;;;4964851;28;20470;-62
2021/12/21 02:54:08;;;;;;;10.63;6.53;;;0.60;99.90;;;;;;4968556;28;20501;-62
2021/12/21 02:56:37;;;;;;;9.17;6.30;;;0.70;99.90;;;;;;4971620;28;20548;-62
2021/12/21 02:59:05;;;;;;;8.47;6.30;;;0.80;99.90;;;;;;4953499;28;20938;-61
2021/12/21 03:01:34;;;;;;;9.10;6.00;;;0.70;99.90;;;;;;4952210;28;20478;-62
2021/12/21 03:04:04;;;;;;;11.10;7.07;;;0.70;99.90;;;;;;4952380;28;21062;-62
2021/12/21 03:07:03;;;;;;;9.47;7.10;;;0.80;99.90;;;;;;4952407;28;21088;-61
2021/12/21 03:09:41;;;;;;;8.10;6.43;;;0.50;99.90;;;;;;4932788;28;20476;-62
2021/12/21 03:12:30;;;;;;;11.40;7.03;;;0.50;99.90;;;;;;4938322;28;20514;-61
2021/12/21 03:14:57;;;;;;;9.03;6.73;;;0.80;99.90;;;;;;4971424;28;20478;-62
2021/12/21 03:17:25;;;;;;;8.67;6.20;;;0.80;99.90;;;;;;4966775;28;20941;-61
2021/12/21 03:19:53;;;;;;;10.13;6.50;;;0.70;99.90;;;;;;4952285;28;20490;-61
2021/12/21 03:22:22;;;;;;;8.37;6.47;;;0.70;99.90;;;;;;4961492;28;20471;-61
2021/12/21 03:24:51;;;;;;;9.07;5.90;;;0.60;99.90;;;;;;4967667;28;20475;-61
2021/12/21 03:27:19;;;;;;;12.40;7.23;;;0.50;99.90;;;;;;4965785;28;20473;-61
2021/12/21 03:29:47;;;;;;;11.90;6.53;;;0.80;99.90;;;;;;4971396;28;20474;-61
2021/12/21 03:32:15;;;;;;;8.77;6.57;;;0.90;99.90;;;;;;4971229;28;20550;-62
2021/12/21 03:34:44;;;;;;;8.13;5.60;;;0.80;99.90;;;;;;4971300;28;21116;-62
2021/12/21 03:37:14;;;;;;;6.83;6.13;;;0.70;99.90;;;;;;4968007;28;20478;-61
2021/12/21 03:39:43;;;;;;;9.80;5.93;;;0.60;99.90;;;;;;4961226;28;20584;-62
2021/12/21 03:42:15;;;;;;;8.23;6.00;;;0.50;99.90;;;;;;4952076;28;21022;-61
2021/12/21 03:44:43;;;;;;;8.53;5.93;;;0.50;99.90;;;;;;4955813;28;20510;-61
2021/12/21 03:47:12;;;;;;;7.73;5.77;;;0.50;99.90;;;;;;4971140;28;20479;-62
2021/12/21 03:49:59;;;;;;;8.03;6.10;;;0.50;99.90;;;;;;4971193;28;20486;-61
2021/12/21 03:52:29;;;;;;;7.03;6.33;;;0.60;99.90;;;;;;4974372;28;20469;-61
2021/12/21 03:55:00;;;;;;;7.80;6.40;;;0.80;99.90;;;;;;4974995;28;20477;-62
2021/12/21 03:57:29;;;;;;;7.93;6.13;;;0.60;99.90;;;;;;4974486;28;20478;-60
2021/12/21 03:59:58;;;;;;;9.63;6.27;;;0.70;99.90;;;;;;4969474;28;20468;-62
2021/12/21 04:02:28;;;;;;;9.63;6.10;;;0.70;99.90;;;;;;4969729;28;20918;-61
2021/12/21 04:04:58;;;;;;;9.70;6.07;;;0.70;99.90;;;;;;4974803;28;20488;-61
2021/12/21 04:07:27;;;;;;;6.33;5.47;;;0.70;99.90;;;;;;4974200;28;20482;-62
2021/12/21 04:09:56;;;;;;;8.63;6.20;;;0.60;99.90;;;;;;4974782;28;20473;-61
2021/12/21 04:12:24;;;;;;;11.10;6.13;;;0.50;99.90;;;;;;4974533;28;20470;-61
2021/12/21 04:14:56;;;;;;;6.60;5.63;;;0.60;99.90;;;;;;4973771;28;20510;-61
2021/12/21 04:17:25;;;;;;;8.10;5.93;;;0.50;99.90;;;;;;4974119;28;20478;-62
2021/12/21 04:19:53;;;;;;;8.80;6.13;;;0.30;99.90;;;;;;4970486;28;20479;-62
2021/12/21 04:22:21;;;;;;;8.13;5.97;;;0.30;99.90;;;;;;4955155;28;21006;-61
2021/12/21 04:24:49;;;;;;;9.80;5.90;;;0.30;99.90;;;;;;4955013;28;20487;-61
2021/12/21 04:27:18;;;;;;;7.30;6.17;;;0.50;99.90;;;;;;4954838;28;20899;-61
2021/12/21 04:29:47;;;;;;;7.53;6.00;;;0.50;99.90;;;;;;4954903;28;20959;-61
2021/12/21 04:32:17;;;;;;;8.77;5.90;;;0.40;99.90;;;;;;4958103;28;20458;-61
2021/12/21 04:34:48;;;;;;;6.75;5.60;;;0.40;99.90;;;;;;2424494;28;10024584;-61
2021/12/21 04:37:18;;;;;;;8.32;6.38;;;0.20;99.90;;;;;;3257900;28;10001082;-61
2021/12/21 04:39:52;;;;;;;7.10;5.67;;;0.40;99.90;;;;;;4970601;28;20737;-61
2021/12/21 04:42:21;;;;;;;9.07;5.80;;;0.50;99.90;;;;;;4958731;28;20481;-61
2021/12/21 04:44:49;;;;;;;6.30;4.83;;;0.10;99.90;;;;;;4969834;28;20470;-59
2021/12/21 04:47:18;;;;;;;8.00;5.00;;;-0.30;99.90;;;;;;4973602;28;20493;-61
2021/12/21 04:49:46;;;;;;;6.57;5.43;;;-0.20;99.90;;;;;;4973964;28;21001;-62
2021/12/21 04:52:15;;;;;;;6.67;4.77;;;-0.50;99.90;;;;;;4972286;28;20500;-61
2021/12/21 04:54:43;;;;;;;6.23;4.57;;;-0.10;99.90;;;;;;4973754;28;21017;-61
2021/12/21 04:57:11;;;;;;;6.70;4.77;;;0.10;99.90;;;;;;4970790;28;20538;-61
2021/12/21 04:59:41;;;;;;;7.47;5.40;;;0.20;99.90;;;;;;4954073;28;20471;-61
2021/12/21 05:02:09;;;;;;;7.53;5.47;;;0.30;99.90;;;;;;4953083;28;21075;-62
2021/12/21 05:04:39;;;;;;;6.43;5.43;;;0.50;99.90;;;;;;4954034;28;20505;-61
2021/12/21 05:07:07;;;;;;;6.90;5.73;;;0.50;99.90;;;;;;4954242;28;20589;-61
2021/12/21 05:09:42;;;;;;;7.90;5.23;;;0.60;99.90;;;;;;4954178;28;20502;-61
2021/12/21 05:12:13;;;;;;;8.77;5.73;;;0.40;99.90;;;;;;4953769;28;20499;-61
2021/12/21 05:14:41;;;;;;;7.43;6.00;;;0.40;99.90;;;;;;4957419;28;20990;-61
2021/12/21 05:17:09;;;;;;;12.20;7.20;;;0.40;99.90;;;;;;4970424;28;20495;-61
2021/12/21 05:19:38;;;;;;;9.80;7.73;;;0.60;99.90;;;;;;4953782;28;20475;-61
2021/12/21 05:22:07;;;;;;;7.23;6.47;;;0.70;99.90;;;;;;4953940;28;20494;-61
2021/12/21 05:24:35;;;;;;;10.33;6.80;;;0.30;99.90;;;;;;4953729;28;20506;-61
2021/12/21 05:27:03;;;;;;;11.13;7.80;;;0.10;99.90;;;;;;4955555;28;21007;-61
2021/12/21 05:29:32;;;;;;;11.93;7.60;;;0.40;99.90;;;;;;4972951;28;20561;-61
2021/12/21 05:32:00;;;;;;;9.60;7.43;;;0.50;99.90;;;;;;4973119;28;20474;-62
2021/12/21 05:34:29;;;;;;;12.23;8.20;;;0.30;99.90;;;;;;4973046;28;20478;-61
2021/12/21 05:37:00;;;;;;;14.03;8.80;;;0.50;99.90;;;;;;4967534;28;20994;-61
2021/12/21 05:39:38;;;;;;;17.87;10.00;;;0.40;99.90;;;;;;4953521;28;20502;-61
2021/12/21 05:42:07;;;;;;;11.20;9.30;;;0.50;99.90;;;;;;4955772;28;20526;-61
2021/12/21 05:44:36;;;;;;;10.33;7.23;;;0.10;99.90;;;;;;4966668;28;20466;-61
2021/12/21 05:47:05;;;;;;;11.77;8.33;;;-0.10;99.90;;;;;;4970678;28;20485;-61
2021/12/21 05:49:34;;;;;;;11.53;8.43;;;0.10;99.90;;;;;;4953383;28;20474;-61
2021/12/21 05:52:04;;;;;;;14.00;9.47;;;0.30;99.90;;;;;;4962404;28;21041;-61
2021/12/21 05:54:32;;;;;;;11.57;9.10;;;0.50;99.90;;;;;;4971692;28;20533;-61
2021/12/21 05:57:01;;;;;;;14.27;8.60;;;0.40;99.90;;;;;;4972387;28;20486;-61
2021/12/21 05:59:29;;;;;;;12.83;8.80;;;0.50;99.90;;;;;;4971300;28;20470;-61
2021/12/21 06:01:57;;;;;;;15.57;9.77;;;0.50;99.90;;;;;;4954119;28;20534;-62
2021/12/21 06:04:26;;;;;;;16.93;9.67;;;0.70;99.90;;;;;;4972470;28;20501;-61
2021/12/21 06:06:54;;;;;;;13.53;9.43;;;0.60;99.90;;;;;;4972762;28;21070;-60
2021/12/21 06:09:24;;;;;;;15.37;8.97;;;0.50;99.90;;;;;;4972603;28;20469;-61
2021/12/21 06:12:03;;;;;;;13.30;9.40;;;0.60;99.90;;;;;;4958291;28;20565;-61
2021/12/21 06:14:52;;;;;;;17.40;9.97;;;0.50;99.90;;;;;;4959587;28;20479;-61
2021/12/21 06:23:07;;;;;;;12.83;9.87;;;-0.10;99.90;;;;;;4951996;28;20494;-61
2021/12/21 06:25:39;;;;;;;13.03;9.37;;;0.40;99.90;;;;;;4952423;28;20558;-61
2021/12/21 06:28:09;;;;;;;12.80;9.53;;;0.50;99.90;;;;;;4958604;28;20467;-61
2021/12/21 06:30:40;;;;;;;15.73;8.90;;;0.10;99.90;;;;;;4954549;28;20501;-61
2021/12/21 06:33:09;;;;;;;13.40;9.80;;;-0.40;99.90;;;;;;4968776;28;20502;-61
2021/12/21 06:35:38;;;;;;;16.53;10.57;;;0.20;99.90;;;;;;4968005;28;20556;-61
2021/12/21 06:38:07;;;;;;;13.43;10.77;;;0.40;99.90;;;;;;4959886;28;20492;-61
2021/12/21 06:40:37;;;;;;;16.00;11.83;;;0.20;99.90;;;;;;4960838;28;20509;-61
2021/12/21 06:43:10;;;;;;;12.17;10.40;;;0.10;99.90;;;;;;4961154;28;20878;-61
2021/12/21 06:45:48;;;;;;;13.60;9.67;;;-0.30;99.90;;;;;;4953094;28;20481;-61
2021/12/21 06:51:16;;;;;;;18.03;14.00;;;0.30;99.90;;;;;;4956859;28;21029;-61
2021/12/21 06:53:47;;;;;;;16.77;12.43;;;0.30;99.90;;;;;;4960563;28;20482;-61
2021/12/21 06:56:18;;;;;;;19.33;13.80;;;0.00;99.90;;;;;;4971702;28;20501;-61
2021/12/21 06:58:46;;;;;;;15.70;10.93;;;-0.40;99.90;;;;;;4968484;28;20478;-61
2021/12/21 07:01:15;;;;;;;14.50;10.97;;;-0.80;99.90;;;;;;4969864;28;20468;-61
2021/12/21 07:03:44;;;;;;;20.43;12.53;;;-1.00;99.90;;;;;;4968103;28;20529;-61
2021/12/21 07:06:16;;;;;;;25.83;19.43;;;-0.60;99.90;;;;;;4970535;28;21036;-61
2021/12/21 07:08:48;;;;;;;21.70;16.40;;;-0.10;99.90;;;;;;4956229;28;20546;-61
2021/12/21 07:11:25;;;;;;;24.87;18.13;;;0.10;99.90;;;;;;4966440;28;20549;-61
2021/12/21 07:19:25;;;;;;;25.53;17.63;;;0.00;99.90;;;;;;4958443;28;20479;-61
2021/12/21 07:21:53;;;;;;;22.73;17.97;;;-0.40;99.90;;;;;;4967144;28;21018;-61
2021/12/21 07:24:22;;;;;;;24.60;16.70;;;-0.80;99.90;;;;;;4969383;28;20505;-61
2021/12/21 07:26:52;;;;;;;22.80;13.87;;;-0.90;99.90;;;;;;4958325;28;21006;-61
2021/12/21 07:29:20;;;;;;;16.40;12.97;;;-1.10;99.90;;;;;;4963085;28;20557;-61
2021/12/21 07:31:48;;;;;;;17.93;12.27;;;-1.20;99.90;;;;;;4973465;28;20484;-61
2021/12/21 07:34:17;;;;;;;15.93;12.10;;;-1.40;99.90;;;;;;4966011;28;20462;-61
2021/12/21 07:36:45;;;;;;;14.87;11.83;;;-1.40;99.90;;;;;;4967548;28;20819;-61
2021/12/21 07:39:17;;;;;;;15.33;11.37;;;-1.30;99.90;;;;;;4960538;28;20891;-59
2021/12/21 07:42:00;;;;;;;16.53;11.30;;;-1.30;99.90;;;;;;4967734;28;20477;-61
2021/12/21 07:44:28;;;;;;;14.57;10.30;;;-1.40;99.90;;;;;;4971388;28;20493;-62
2021/12/21 07:46:56;;;;;;;12.60;9.10;;;-1.50;99.90;;;;;;4967669;28;21014;-61
2021/12/21 07:49:25;;;;;;;12.10;9.53;;;-1.50;99.90;;;;;;4972283;28;20614;-61
2021/12/21 07:51:53;;;;;;;12.23;7.80;;;-1.60;99.90;;;;;;4968705;28;20535;-61
2021/12/21 07:54:22;;;;;;;11.90;8.87;;;-1.60;99.90;;;;;;4972837;28;20470;-61
2021/12/21 07:56:50;;;;;;;13.20;10.50;;;-1.60;99.90;;;;;;4974922;28;20549;-61
2021/12/21 07:59:20;;;;;;;17.33;10.30;;;-1.50;99.90;;;;;;4936548;28;20483;-61
2021/12/21 08:01:49;;;;;;;15.93;10.13;;;-1.40;99.90;;;;;;4941152;28;20501;-60
2021/12/21 08:04:21;;;;;;;13.93;10.17;;;-1.60;99.90;;;;;;4936311;28;20825;-61
2021/12/21 08:06:51;;;;;;;15.37;10.70;;;-1.60;99.90;;;;;;4936401;28;20468;-61
2021/12/21 08:09:20;;;;;;;18.23;9.93;;;-1.70;99.90;;;;;;4936357;28;20460;-61
2021/12/21 08:14:31;;;;;;;14.50;10.40;;;-1.10;99.90;;;;;;4931281;28;21095;-61
2021/12/21 08:16:59;;;;;;;13.17;10.57;;;-1.40;99.90;;;;;;4937436;28;20501;-61
2021/12/21 08:19:28;;;;;;;15.63;10.47;;;-1.50;99.90;;;;;;4954892;28;20471;-60
2021/12/21 08:21:56;;;;;;;13.93;9.90;;;-1.60;99.90;;;;;;4959305;28;20533;-61
2021/12/21 08:24:24;;;;;;;15.03;11.10;;;-1.60;99.90;;;;;;4974941;28;20472;-61
2021/12/21 08:26:52;;;;;;;15.00;11.33;;;-1.60;99.90;;;;;;4974094;28;20581;-61
2021/12/21 08:29:20;;;;;;;16.37;12.70;;;-1.40;99.90;;;;;;4955207;28;20474;-60
2021/12/21 08:31:50;;;;;;;14.30;11.90;;;-1.50;99.90;;;;;;4954990;28;20485;-61
2021/12/21 08:34:18;;;;;;;18.03;11.27;;;-1.50;99.90;;;;;;4955009;28;20964;-61
2021/12/21 08:36:46;;;;;;;18.00;11.30;;;-1.50;99.90;;;;;;4954679;28;21014;-61
2021/12/21 08:39:16;;;;;;;18.53;11.20;;;-1.30;99.90;;;;;;4954637;28;20899;-60
2021/12/21 08:41:45;;;;;;;24.00;11.07;;;-1.20;99.90;;;;;;4954347;28;20484;-60
2021/12/21 08:44:20;;;;;;;17.70;11.17;;;-1.30;99.90;;;;;;4973539;28;20532;-61
2021/12/21 08:46:50;;;;;;;24.93;15.47;;;-1.20;99.90;;;;;;4971672;28;20493;-60
2021/12/21 08:49:18;;;;;;;21.90;14.63;;;-1.10;99.90;;;;;;4968431;28;20480;-61
2021/12/21 08:51:46;;;;;;;20.13;14.40;;;-0.90;99.90;;;;;;4973944;28;20470;-61
2021/12/21 08:54:14;;;;;;;22.80;13.93;;;-1.10;99.90;;;;;;4969287;28;20462;-61
2021/12/21 08:56:44;;;;;;;37.10;18.47;;;-1.10;99.90;;;;;;4973722;28;20478;-60
2021/12/21 08:59:13;;;;;;;35.20;17.80;;;-0.90;99.90;;;;;;4973392;28;20474;-61
2021/12/21 09:01:41;;;;;;;29.30;17.10;;;-0.90;99.90;;;;;;4969402;28;20885;-61
2021/12/21 09:04:10;;;;;;;32.53;16.70;;;-0.80;99.90;;;;;;4954289;28;20493;-61
2021/12/21 09:06:39;;;;;;;24.17;14.17;;;-0.90;99.90;;;;;;4954248;28;20482;-61
2021/12/21 09:09:07;;;;;;;24.50;12.73;;;-0.90;99.90;;;;;;4954363;28;20497;-61
2021/12/21 09:11:37;;;;;;;16.37;10.40;;;-0.90;99.90;;;;;;4953909;28;20530;-61
2021/12/21 09:14:05;;;;;;;14.83;9.93;;;-0.90;99.90;;;;;;4971895;28;20526;-60
2021/12/21 09:16:34;;;;;;;15.90;10.50;;;-0.70;99.90;;;;;;4973372;28;20482;-61
2021/12/21 09:19:03;;;;;;;15.10;10.07;;;-0.70;99.90;;;;;;4956000;28;20583;-61
2021/12/21 09:21:32;;;;;;;12.27;9.43;;;-0.80;99.90;;;;;;4953787;28;20475;-61
2021/12/21 09:24:00;;;;;;;16.87;9.73;;;-0.50;99.90;;;;;;4952794;28;20562;-61
2021/12/21 09:26:29;;;;;;;15.77;10.93;;;-0.30;99.90;;;;;;4953939;28;20522;-60
2021/12/21 09:28:57;;;;;;;15.27;11.93;;;-0.20;99.90;;;;;;4954003;28;20497;-61
2021/12/21 09:31:25;;;;;;;17.47;12.73;;;-0.30;99.90;;;;;;4957609;28;20474;-61
2021/12/21 09:33:53;;;;;;;15.80;12.30;;;-0.30;99.90;;;;;;4954337;28;20837;-61
2021/12/21 09:36:22;;;;;;;20.10;15.03;;;-0.30;99.90;;;;;;4953909;28;20491;-61
2021/12/21 09:38:52;;;;;;;15.43;13.00;;;-0.20;99.90;;;;;;4953982;28;20482;-61
2021/12/21 09:41:20;;;;;;;17.23;13.47;;;-0.10;99.90;;;;;;4953733;28;20483;-61
2021/12/21 09:43:48;;;;;;;17.17;13.60;;;-0.10;99.90;;;;;;4953547;28;20477;-59
2021/12/21 09:46:17;;;;;;;19.40;15.27;;;-0.10;99.90;;;;;;4953799;28;20509;-61
2021/12/21 09:48:45;;;;;;;19.27;15.17;;;0.20;99.90;;;;;;4965870;28;20476;-61
2021/12/21 09:51:15;;;;;;;19.53;16.30;;;0.30;99.90;;;;;;4966666;28;20541;-61
2021/12/21 09:53:44;;;;;;;21.60;16.50;;;0.50;99.90;;;;;;4962013;28;20478;-60
2021/12/21 09:56:14;;;;;;;22.70;16.90;;;0.50;99.90;;;;;;4972640;28;20561;-61
2021/12/21 09:58:42;;;;;;;18.83;15.30;;;0.40;99.90;;;;;;4957675;28;20913;-60
2021/12/21 10:01:10;;;;;;;18.60;15.63;;;0.40;99.90;;;;;;4953321;28;20498;-61
2021/12/21 10:03:38;;;;;;;21.77;14.93;;;0.50;99.90;;;;;;4953142;28;20569;-61
2021/12/21 10:06:10;;;;;;;19.67;16.57;;;0.40;99.90;;;;;;4953329;28;20478;-61
2021/12/21 10:08:39;;;;;;;18.07;15.60;;;0.50;99.90;;;;;;4952931;28;20570;-61
2021/12/21 10:11:17;;;;;;;15.33;13.67;;;0.40;99.90;;;;;;4953128;28;20487;-61
2021/12/21 10:13:46;;;;;;;16.47;13.30;;;0.30;99.90;;;;;;4953104;28;20902;-61
2021/12/21 10:16:20;;;;;;;19.47;13.53;;;0.30;99.90;;;;;;4953201;28;20839;-60
2021/12/21 10:18:49;;;;;;;17.60;13.77;;;0.30;99.90;;;;;;4968547;28;20478;-61
2021/12/21 10:21:18;;;;;;;16.30;12.63;;;0.40;99.90;;;;;;4971665;28;20465;-61
2021/12/21 10:23:48;;;;;;;19.47;12.87;;;0.40;99.90;;;;;;4967978;28;20562;-60
2021/12/21 10:26:21;;;;;;;14.97;12.20;;;0.50;99.90;;;;;;4972482;28;20500;-61
2021/12/21 10:28:52;;;;;;;20.60;12.90;;;0.70;99.90;;;;;;4955927;28;20530;-61
2021/12/21 10:31:25;;;;;;;15.47;12.73;;;0.90;99.90;;;;;;4954658;28;20480;-61
2021/12/21 10:33:57;;;;;;;16.93;14.03;;;1.20;99.90;;;;;;4969063;28;21017;-60
2021/12/21 10:36:26;;;;;;;16.03;13.07;;;1.20;99.90;;;;;;4966519;28;20479;-60
2021/12/21 10:38:57;;;;;;;18.07;14.23;;;1.30;99.90;;;;;;4950519;28;20978;-61
2021/12/21 10:41:31;;;;;;;17.17;14.40;;;1.50;99.90;;;;;;4952475;28;20498;-61
2021/12/21 10:44:03;;;;;;;15.07;13.53;;;1.70;99.90;;;;;;4958224;28;20987;-61
2021/12/21 10:46:34;;;;;;;18.10;14.90;;;1.60;99.90;;;;;;4964913;28;20474;-61
2021/12/21 10:49:10;;;;;;;17.77;13.83;;;1.80;99.90;;;;;;4971837;28;20478;-61
2021/12/21 10:51:51;;;;;;;16.03;13.67;;;1.80;99.90;;;;;;4951306;28;21022;-61
2021/12/21 10:54:27;;;;;;;19.47;13.53;;;1.90;99.90;;;;;;4961815;28;21067;-61
2021/12/21 10:57:00;;;;;;;14.83;13.27;;;2.10;99.90;;;;;;4971350;28;20554;-61
2021/12/21 10:59:36;;;;;;;18.90;15.63;;;2.20;99.90;;;;;;4972043;28;20990;-61
2021/12/21 11:02:10;;;;;;;18.97;13.67;;;2.50;99.90;;;;;;4970400;28;20475;-62
2021/12/21 11:04:40;;;;;;;17.63;14.07;;;2.50;99.90;;;;;;4963434;28;21013;-61
2021/12/21 11:07:22;;;;;;;20.83;15.20;;;2.70;99.90;;;;;;4947198;28;20516;-62
2021/12/21 11:09:55;;;;;;;19.33;14.47;;;2.70;99.90;;;;;;4951056;28;20566;-61
2021/12/21 11:12:25;;;;;;;22.87;14.90;;;2.90;99.90;;;;;;4962562;28;20613;-61
2021/12/21 11:14:57;;;;;;;18.30;13.57;;;2.90;99.90;;;;;;4975661;28;20477;-61
2021/12/21 11:17:26;;;;;;;17.27;14.57;;;2.90;99.90;;;;;;4971990;28;20478;-61
2021/12/21 11:19:54;;;;;;;18.73;13.50;;;3.00;99.90;;;;;;4969386;28;20987;-61
2021/12/21 11:22:23;;;;;;;16.33;13.10;;;3.10;99.90;;;;;;4972164;28;20812;-61
2021/12/21 11:24:52;;;;;;;16.90;13.40;;;3.20;99.90;;;;;;4966818;28;20474;-62
2021/12/21 11:27:23;;;;;;;25.83;17.73;;;3.30;99.90;;;;;;4971526;28;20482;-62
2021/12/21 11:29:53;;;;;;;18.70;15.40;;;3.40;99.90;;;;;;4956048;28;21007;-60
2021/12/21 11:32:24;;;;;;;17.53;14.37;;;3.30;99.90;;;;;;4960539;28;20475;-61
2021/12/21 11:37:20;;;;;;;17.63;12.17;;;3.40;99.90;;;;;;4954051;28;20546;-62
2021/12/21 11:37:59;;;;;;;17.40;11.40;;;3.50;99.90;;;;;;4963185;28;20547;-61
2021/12/21 11:40:30;;;;;;;12.50;10.83;;;3.40;99.90;;;;;;4974831;28;20486;-61
2021/12/21 11:43:11;;;;;;;15.07;11.50;;;3.40;99.90;;;;;;4967410;28;21065;-61
2021/12/21 11:45:48;;;;;;;20.67;12.27;;;3.30;99.90;;;;;;4972303;28;20520;-62
2021/12/21 11:48:25;;;;;;;16.10;13.00;;;3.30;99.90;;;;;;4954609;28;20454;-61
2021/12/21 11:51:00;;;;;;;14.53;11.53;;;3.30;99.90;;;;;;4946588;28;20475;-62
2021/12/21 11:53:28;;;;;;;15.90;11.97;;;3.40;99.90;;;;;;4959051;28;20523;-62
2021/12/21 11:55:56;;;;;;;15.07;12.23;;;3.40;99.90;;;;;;4961661;28;20473;-61
2021/12/21 11:58:27;;;;;;;20.33;12.57;;;3.40;99.90;;;;;;4963941;28;21013;-61
2021/12/21 12:00:57;;;;;;;13.70;11.37;;;3.40;99.90;;;;;;4965786;28;20472;-62
2021/12/21 12:03:29;;;;;;;13.93;11.20;;;3.40;99.90;;;;;;4967379;28;20492;-62
2021/12/21 12:06:01;;;;;;;14.13;11.00;;;3.50;99.90;;;;;;4974797;28;20475;-62
2021/12/21 12:08:42;;;;;;;15.00;10.80;;;3.50;99.90;;;;;;4974631;28;20478;-61
2021/12/21 12:11:20;;;;;;;15.70;11.13;;;3.30;99.90;;;;;;4974232;28;21028;-62
2021/12/21 12:13:48;;;;;;;17.77;12.07;;;3.30;99.90;;;;;;4955030;28;20517;-62
2021/12/21 12:16:18;;;;;;;13.87;11.53;;;3.40;99.90;;;;;;4955234;28;20825;-62
2021/12/21 12:18:49;;;;;;;17.10;10.33;;;3.40;99.90;;;;;;4956104;28;20503;-62
2021/12/21 12:21:22;;;;;;;14.57;11.40;;;3.40;99.90;;;;;;4971872;28;20484;-62
2021/12/21 12:23:53;;;;;;;17.43;11.10;;;3.40;99.90;;;;;;4964867;28;20491;-62
2021/12/21 12:26:24;;;;;;;16.60;11.20;;;3.40;99.90;;;;;;4970384;28;20838;-61
2021/12/21 12:28:53;;;;;;;15.40;12.00;;;3.30;99.90;;;;;;4955304;28;20521;-62
2021/12/21 12:31:33;;;;;;;16.00;12.03;;;3.40;99.90;;;;;;4961687;28;20488;-62
2021/12/21 12:34:03;;;;;;;16.00;11.80;;;3.40;99.90;;;;;;4960859;28;21106;-61
2021/12/21 12:36:47;;;;;;;12.87;10.50;;;3.40;99.90;;;;;;4955836;28;20879;-62
2021/12/21 12:39:28;;;;;;;14.03;11.40;;;3.40;99.90;;;;;;4963208;28;20997;-62
2021/12/21 12:42:03;;;;;;;16.70;11.50;;;3.40;99.90;;;;;;4954290;28;20564;-62
2021/12/21 12:44:32;;;;;;;19.17;11.57;;;3.50;99.90;;;;;;4955099;28;20505;-62
2021/12/21 12:47:09;;;;;;;16.57;10.47;;;3.40;99.90;;;;;;4961330;28;20857;-62
2021/12/21 12:49:48;;;;;;;16.00;9.27;;;3.40;99.90;;;;;;4955809;28;20618;-62
2021/12/21 12:52:18;;;;;;;13.17;9.83;;;3.40;99.90;;;;;;4955376;28;20602;-62
2021/12/21 12:54:51;;;;;;;13.00;8.93;;;3.40;99.90;;;;;;4958147;28;20471;-62
2021/12/21 12:57:35;;;;;;;11.80;9.30;;;3.40;99.90;;;;;;4960885;28;20541;-62
2021/12/21 13:00:16;;;;;;;13.53;9.20;;;3.40;99.90;;;;;;4956268;28;20603;-62
2021/12/21 13:02:58;;;;;;;12.43;8.40;;;3.40;99.90;;;;;;4958562;28;20489;-62
2021/12/21 13:05:35;;;;;;;9.90;7.80;;;3.30;99.90;;;;;;4956272;28;20491;-61
2021/12/21 13:08:11;;;;;;;10.73;7.57;;;3.20;99.90;;;;;;4957178;28;20575;-62
2021/12/21 13:10:41;;;;;;;13.03;8.50;;;3.20;99.90;;;;;;4954777;28;20495;-62
2021/12/21 13:13:10;;;;;;;12.17;7.53;;;3.20;99.90;;;;;;4956952;28;20546;-61
2021/12/21 13:15:41;;;;;;;12.17;7.60;;;3.10;99.90;;;;;;4958937;28;20492;-62
2021/12/21 13:18:13;;;;;;;9.50;6.43;;;3.10;99.90;;;;;;4956622;28;20552;-62
2021/12/21 13:20:43;;;;;;;9.10;5.77;;;3.00;99.90;;;;;;4962023;28;20567;-62
2021/12/21 13:23:14;;;;;;;10.37;6.10;;;3.00;99.90;;;;;;4958232;28;20511;-62
2021/12/21 13:25:54;;;;;;;8.90;5.60;;;3.10;99.90;;;;;;4954263;28;20496;-62
2021/12/21 13:28:22;;;;;;;9.60;5.57;;;3.10;99.90;;;;;;4954081;28;20515;-62
2021/12/21 13:30:54;;;;;;;31.20;20.57;;;3.10;99.90;;;;;;4955249;28;20484;-61